sensor_id;sensor_type;location;lat;lon;timestamp;P1;durP1;ratioP1;P2;durP2;ratioP2
77597;SDS011;66756;42.774;23.354;2023-07-09T00:02:12;6.00;;;2.85;;
77597;SDS011;66756;42.774;23.354;2023-07-09T00:04:39;4.32;;;2.58;;
77597;SDS011;66756;42.774;23.354;2023-07-09T00:07:05;4.25;;;3.00;;
77597;SDS011;66756;42.774;23.354;2023-07-09T00:09:31;5.85;;;2.85;;
77597;SDS011;66756;42.774;23.354;2023-07-09T00:11:57;7.75;;;3.13;;
77597;SDS011;66756;42.774;23.354;2023-07-09T00:14:23;5.38;;;2.85;;
77597;SDS011;66756;42.774;23.354;2023-07-09T00:16:49;4.90;;;2.95;;
77597;SDS011;66756;42.774;23.354;2023-07-09T00:19:17;5.22;;;3.08;;
77597;SDS011;66756;42.774;23.354;2023-07-09T00:21:44;5.88;;;2.55;;
77597;SDS011;66756;42.774;23.354;2023-07-09T00:24:11;5.63;;;3.05;;
77597;SDS011;66756;42.774;23.354;2023-07-09T00:26:37;5.07;;;3.17;;
77597;SDS011;66756;42.774;23.354;2023-07-09T00:29:07;3.88;;;2.78;;
77597;SDS011;66756;42.774;23.354;2023-07-09T00:31:33;4.43;;;2.78;;
77597;SDS011;66756;42.774;23.354;2023-07-09T00:33:59;4.43;;;3.15;;
77597;SDS011;66756;42.774;23.354;2023-07-09T00:36:26;4.97;;;2.72;;
77597;SDS011;66756;42.774;23.354;2023-07-09T00:38:54;5.55;;;3.45;;
77597;SDS011;66756;42.774;23.354;2023-07-09T00:41:21;5.03;;;3.42;;
77597;SDS011;66756;42.774;23.354;2023-07-09T00:43:48;4.63;;;2.83;;
77597;SDS011;66756;42.774;23.354;2023-07-09T00:48:51;4.88;;;2.60;;
77597;SDS011;66756;42.774;23.354;2023-07-09T00:51:19;5.82;;;3.05;;
77597;SDS011;66756;42.774;23.354;2023-07-09T00:53:46;5.00;;;2.92;;
77597;SDS011;66756;42.774;23.354;2023-07-09T00:56:16;6.47;;;2.60;;
77597;SDS011;66756;42.774;23.354;2023-07-09T00:58:45;3.97;;;2.45;;
77597;SDS011;66756;42.774;23.354;2023-07-09T01:01:16;5.03;;;2.47;;
77597;SDS011;66756;42.774;23.354;2023-07-09T01:03:47;4.75;;;2.78;;
77597;SDS011;66756;42.774;23.354;2023-07-09T01:06:15;5.22;;;2.78;;
77597;SDS011;66756;42.774;23.354;2023-07-09T01:08:44;6.78;;;2.40;;
77597;SDS011;66756;42.774;23.354;2023-07-09T01:11:17;3.85;;;2.35;;
77597;SDS011;66756;42.774;23.354;2023-07-09T01:13:46;4.28;;;2.45;;
77597;SDS011;66756;42.774;23.354;2023-07-09T01:16:13;4.95;;;2.28;;
77597;SDS011;66756;42.774;23.354;2023-07-09T01:18:40;6.32;;;2.17;;
77597;SDS011;66756;42.774;23.354;2023-07-09T01:21:10;5.43;;;2.58;;
77597;SDS011;66756;42.774;23.354;2023-07-09T01:23:41;5.40;;;2.15;;
77597;SDS011;66756;42.774;23.354;2023-07-09T01:26:09;4.60;;;2.78;;
77597;SDS011;66756;42.774;23.354;2023-07-09T01:28:36;3.63;;;2.17;;
77597;SDS011;66756;42.774;23.354;2023-07-09T01:31:02;3.85;;;2.10;;
77597;SDS011;66756;42.774;23.354;2023-07-09T01:33:29;4.20;;;3.17;;
77597;SDS011;66756;42.774;23.354;2023-07-09T01:35:56;5.50;;;2.53;;
77597;SDS011;66756;42.774;23.354;2023-07-09T01:38:25;5.38;;;2.78;;
77597;SDS011;66756;42.774;23.354;2023-07-09T01:40:55;5.43;;;2.78;;
77597;SDS011;66756;42.774;23.354;2023-07-09T01:43:21;4.38;;;3.17;;
77597;SDS011;66756;42.774;23.354;2023-07-09T01:45:47;5.82;;;2.83;;
77597;SDS011;66756;42.774;23.354;2023-07-09T01:48:15;4.20;;;2.92;;
77597;SDS011;66756;42.774;23.354;2023-07-09T01:50:42;4.75;;;3.33;;
77597;SDS011;66756;42.774;23.354;2023-07-09T01:53:11;5.30;;;2.80;;
77597;SDS011;66756;42.774;23.354;2023-07-09T01:55:37;4.75;;;3.95;;
77597;SDS011;66756;42.774;23.354;2023-07-09T01:58:03;5.38;;;3.28;;
77597;SDS011;66756;42.774;23.354;2023-07-09T02:00:32;4.97;;;2.70;;
77597;SDS011;66756;42.774;23.354;2023-07-09T02:03:00;4.22;;;3.13;;
77597;SDS011;66756;42.774;23.354;2023-07-09T02:05:27;5.93;;;3.40;;
77597;SDS011;66756;42.774;23.354;2023-07-09T02:07:53;5.57;;;2.80;;
77597;SDS011;66756;42.774;23.354;2023-07-09T02:10:20;4.97;;;3.05;;
77597;SDS011;66756;42.774;23.354;2023-07-09T02:12:46;5.43;;;2.63;;
77597;SDS011;66756;42.774;23.354;2023-07-09T02:15:13;4.85;;;2.55;;
77597;SDS011;66756;42.774;23.354;2023-07-09T02:17:39;5.15;;;3.65;;
77597;SDS011;66756;42.774;23.354;2023-07-09T02:20:05;5.93;;;2.85;;
77597;SDS011;66756;42.774;23.354;2023-07-09T02:22:32;8.00;;;3.40;;
77597;SDS011;66756;42.774;23.354;2023-07-09T02:24:58;4.72;;;3.30;;
77597;SDS011;66756;42.774;23.354;2023-07-09T02:27:25;4.22;;;2.90;;
77597;SDS011;66756;42.774;23.354;2023-07-09T02:29:51;7.25;;;3.03;;
77597;SDS011;66756;42.774;23.354;2023-07-09T02:32:21;5.00;;;2.92;;
77597;SDS011;66756;42.774;23.354;2023-07-09T02:34:47;6.07;;;2.92;;
77597;SDS011;66756;42.774;23.354;2023-07-09T02:37:14;5.70;;;3.58;;
77597;SDS011;66756;42.774;23.354;2023-07-09T02:39:42;4.47;;;2.85;;
77597;SDS011;66756;42.774;23.354;2023-07-09T02:42:12;6.05;;;3.10;;
77597;SDS011;66756;42.774;23.354;2023-07-09T02:44:38;4.63;;;2.83;;
77597;SDS011;66756;42.774;23.354;2023-07-09T02:47:04;3.88;;;2.78;;
77597;SDS011;66756;42.774;23.354;2023-07-09T02:49:31;5.45;;;2.47;;
77597;SDS011;66756;42.774;23.354;2023-07-09T02:51:57;3.72;;;2.17;;
77597;SDS011;66756;42.774;23.354;2023-07-09T02:54:23;5.07;;;2.85;;
77597;SDS011;66756;42.774;23.354;2023-07-09T02:56:49;4.03;;;2.55;;
77597;SDS011;66756;42.774;23.354;2023-07-09T02:59:15;5.10;;;3.47;;
77597;SDS011;66756;42.774;23.354;2023-07-09T03:01:41;7.45;;;3.08;;
77597;SDS011;66756;42.774;23.354;2023-07-09T03:04:08;3.83;;;2.70;;
77597;SDS011;66756;42.774;23.354;2023-07-09T03:06:34;5.40;;;2.65;;
77597;SDS011;66756;42.774;23.354;2023-07-09T03:09:01;4.65;;;2.95;;
77597;SDS011;66756;42.774;23.354;2023-07-09T03:11:31;3.65;;;2.15;;
77597;SDS011;66756;42.774;23.354;2023-07-09T03:13:58;4.65;;;3.05;;
77597;SDS011;66756;42.774;23.354;2023-07-09T03:16:25;5.72;;;3.10;;
77597;SDS011;66756;42.774;23.354;2023-07-09T03:18:52;5.55;;;2.75;;
77597;SDS011;66756;42.774;23.354;2023-07-09T03:21:19;5.40;;;2.28;;
77597;SDS011;66756;42.774;23.354;2023-07-09T03:23:45;5.60;;;2.55;;
77597;SDS011;66756;42.774;23.354;2023-07-09T03:26:11;7.63;;;3.10;;
77597;SDS011;66756;42.774;23.354;2023-07-09T03:28:37;4.10;;;3.53;;
77597;SDS011;66756;42.774;23.354;2023-07-09T03:31:03;4.60;;;2.83;;
77597;SDS011;66756;42.774;23.354;2023-07-09T03:33:29;5.45;;;2.70;;
77597;SDS011;66756;42.774;23.354;2023-07-09T03:35:55;3.95;;;2.15;;
77597;SDS011;66756;42.774;23.354;2023-07-09T03:38:21;4.10;;;2.70;;
77597;SDS011;66756;42.774;23.354;2023-07-09T03:40:51;4.70;;;2.28;;
77597;SDS011;66756;42.774;23.354;2023-07-09T03:43:18;3.30;;;2.33;;
77597;SDS011;66756;42.774;23.354;2023-07-09T03:45:44;3.05;;;1.90;;
77597;SDS011;66756;42.774;23.354;2023-07-09T03:48:11;3.65;;;2.13;;
77597;SDS011;66756;42.774;23.354;2023-07-09T03:50:37;4.60;;;2.45;;
77597;SDS011;66756;42.774;23.354;2023-07-09T03:53:03;4.07;;;2.38;;
77597;SDS011;66756;42.774;23.354;2023-07-09T03:55:30;5.00;;;2.92;;
77597;SDS011;66756;42.774;23.354;2023-07-09T03:57:57;4.47;;;2.10;;
77597;SDS011;66756;42.774;23.354;2023-07-09T04:00:23;4.07;;;2.50;;
77597;SDS011;66756;42.774;23.354;2023-07-09T04:02:50;4.53;;;2.35;;
77597;SDS011;66756;42.774;23.354;2023-07-09T04:05:16;3.72;;;2.47;;
77597;SDS011;66756;42.774;23.354;2023-07-09T04:07:42;3.90;;;2.45;;
77597;SDS011;66756;42.774;23.354;2023-07-09T04:10:09;5.93;;;2.45;;
77597;SDS011;66756;42.774;23.354;2023-07-09T04:12:35;3.45;;;2.08;;
77597;SDS011;66756;42.774;23.354;2023-07-09T04:15:02;5.13;;;2.40;;
77597;SDS011;66756;42.774;23.354;2023-07-09T04:17:28;4.60;;;1.98;;
77597;SDS011;66756;42.774;23.354;2023-07-09T04:19:54;4.32;;;2.47;;
77597;SDS011;66756;42.774;23.354;2023-07-09T04:22:20;4.00;;;2.92;;
77597;SDS011;66756;42.774;23.354;2023-07-09T04:24:46;5.32;;;2.75;;
77597;SDS011;66756;42.774;23.354;2023-07-09T04:27:12;5.90;;;2.75;;
77597;SDS011;66756;42.774;23.354;2023-07-09T04:29:39;5.13;;;4.28;;
77597;SDS011;66756;42.774;23.354;2023-07-09T04:32:05;4.05;;;3.55;;
77597;SDS011;66756;42.774;23.354;2023-07-09T04:34:32;4.50;;;3.00;;
77597;SDS011;66756;42.774;23.354;2023-07-09T04:36:58;7.00;;;3.95;;
77597;SDS011;66756;42.774;23.354;2023-07-09T04:39:24;6.32;;;3.53;;
77597;SDS011;66756;42.774;23.354;2023-07-09T04:41:50;4.82;;;3.53;;
77597;SDS011;66756;42.774;23.354;2023-07-09T04:44:16;5.28;;;3.13;;
77597;SDS011;66756;42.774;23.354;2023-07-09T04:46:42;6.18;;;3.53;;
77597;SDS011;66756;42.774;23.354;2023-07-09T04:49:08;3.90;;;3.17;;
77597;SDS011;66756;42.774;23.354;2023-07-09T04:51:37;4.43;;;2.92;;
77597;SDS011;66756;42.774;23.354;2023-07-09T04:54:03;5.30;;;3.42;;
77597;SDS011;66756;42.774;23.354;2023-07-09T04:56:29;3.83;;;2.65;;
77597;SDS011;66756;42.774;23.354;2023-07-09T04:58:56;4.38;;;2.75;;
77597;SDS011;66756;42.774;23.354;2023-07-09T05:01:22;6.60;;;3.05;;
77597;SDS011;66756;42.774;23.354;2023-07-09T05:03:48;5.30;;;2.85;;
77597;SDS011;66756;42.774;23.354;2023-07-09T05:06:14;4.90;;;3.00;;
77597;SDS011;66756;42.774;23.354;2023-07-09T05:08:40;4.38;;;2.65;;
77597;SDS011;66756;42.774;23.354;2023-07-09T05:11:08;7.97;;;3.00;;
77597;SDS011;66756;42.774;23.354;2023-07-09T05:13:35;5.35;;;2.92;;
77597;SDS011;66756;42.774;23.354;2023-07-09T05:16:01;4.18;;;2.33;;
77597;SDS011;66756;42.774;23.354;2023-07-09T05:18:27;3.60;;;2.58;;
77597;SDS011;66756;42.774;23.354;2023-07-09T05:20:54;5.60;;;2.20;;
77597;SDS011;66756;42.774;23.354;2023-07-09T05:23:21;3.75;;;2.65;;
77597;SDS011;66756;42.774;23.354;2023-07-09T05:25:47;4.95;;;3.50;;
77597;SDS011;66756;42.774;23.354;2023-07-09T05:28:13;3.95;;;2.47;;
77597;SDS011;66756;42.774;23.354;2023-07-09T05:30:41;3.30;;;2.45;;
77597;SDS011;66756;42.774;23.354;2023-07-09T05:33:07;3.63;;;2.05;;
77597;SDS011;66756;42.774;23.354;2023-07-09T05:35:33;3.67;;;2.53;;
77597;SDS011;66756;42.774;23.354;2023-07-09T05:37:59;5.78;;;3.55;;
77597;SDS011;66756;42.774;23.354;2023-07-09T05:40:25;4.75;;;3.22;;
77597;SDS011;66756;42.774;23.354;2023-07-09T05:42:51;5.53;;;2.92;;
77597;SDS011;66756;42.774;23.354;2023-07-09T05:45:17;4.88;;;3.35;;
77597;SDS011;66756;42.774;23.354;2023-07-09T05:47:43;5.28;;;2.95;;
77597;SDS011;66756;42.774;23.354;2023-07-09T05:50:09;7.00;;;3.13;;
77597;SDS011;66756;42.774;23.354;2023-07-09T05:52:35;4.72;;;3.05;;
77597;SDS011;66756;42.774;23.354;2023-07-09T05:55:01;7.03;;;3.20;;
77597;SDS011;66756;42.774;23.354;2023-07-09T05:57:27;4.55;;;3.65;;
77597;SDS011;66756;42.774;23.354;2023-07-09T05:59:53;4.70;;;3.17;;
77597;SDS011;66756;42.774;23.354;2023-07-09T06:02:20;5.13;;;3.78;;
77597;SDS011;66756;42.774;23.354;2023-07-09T06:04:46;4.13;;;3.03;;
77597;SDS011;66756;42.774;23.354;2023-07-09T06:07:14;3.83;;;2.97;;
77597;SDS011;66756;42.774;23.354;2023-07-09T06:09:41;4.50;;;3.05;;
77597;SDS011;66756;42.774;23.354;2023-07-09T06:12:07;5.10;;;3.55;;
77597;SDS011;66756;42.774;23.354;2023-07-09T06:14:34;5.43;;;2.63;;
77597;SDS011;66756;42.774;23.354;2023-07-09T06:17:00;5.30;;;3.08;;
77597;SDS011;66756;42.774;23.354;2023-07-09T06:19:27;8.15;;;3.08;;
77597;SDS011;66756;42.774;23.354;2023-07-09T06:21:53;4.47;;;2.88;;
77597;SDS011;66756;42.774;23.354;2023-07-09T06:24:19;5.75;;;2.90;;
77597;SDS011;66756;42.774;23.354;2023-07-09T06:26:45;4.53;;;3.10;;
77597;SDS011;66756;42.774;23.354;2023-07-09T06:29:11;4.03;;;2.58;;
77597;SDS011;66756;42.774;23.354;2023-07-09T06:31:37;4.45;;;2.85;;
77597;SDS011;66756;42.774;23.354;2023-07-09T06:34:05;4.03;;;2.42;;
77597;SDS011;66756;42.774;23.354;2023-07-09T06:36:32;3.33;;;2.25;;
77597;SDS011;66756;42.774;23.354;2023-07-09T06:38:58;3.72;;;2.33;;
77597;SDS011;66756;42.774;23.354;2023-07-09T06:41:24;3.88;;;2.33;;
77597;SDS011;66756;42.774;23.354;2023-07-09T06:43:50;4.88;;;2.45;;
77597;SDS011;66756;42.774;23.354;2023-07-09T06:46:18;4.13;;;2.30;;
77597;SDS011;66756;42.774;23.354;2023-07-09T06:48:44;3.30;;;2.53;;
77597;SDS011;66756;42.774;23.354;2023-07-09T06:51:10;3.67;;;2.25;;
77597;SDS011;66756;42.774;23.354;2023-07-09T06:53:36;4.07;;;2.72;;
77597;SDS011;66756;42.774;23.354;2023-07-09T06:56:02;3.20;;;2.15;;
77597;SDS011;66756;42.774;23.354;2023-07-09T06:58:29;5.28;;;2.55;;
77597;SDS011;66756;42.774;23.354;2023-07-09T07:01:02;3.22;;;1.88;;
77597;SDS011;66756;42.774;23.354;2023-07-09T07:03:31;3.88;;;2.28;;
77597;SDS011;66756;42.774;23.354;2023-07-09T07:05:58;3.80;;;2.25;;
77597;SDS011;66756;42.774;23.354;2023-07-09T07:08:24;6.80;;;2.33;;
77597;SDS011;66756;42.774;23.354;2023-07-09T07:10:57;9.88;;;2.50;;
77597;SDS011;66756;42.774;23.354;2023-07-09T07:13:28;5.00;;;2.97;;
77597;SDS011;66756;42.774;23.354;2023-07-09T07:15:55;5.82;;;2.63;;
77597;SDS011;66756;42.774;23.354;2023-07-09T07:18:21;4.15;;;2.15;;
77597;SDS011;66756;42.774;23.354;2023-07-09T07:20:48;4.88;;;2.53;;
77597;SDS011;66756;42.774;23.354;2023-07-09T07:23:15;3.53;;;2.55;;
77597;SDS011;66756;42.774;23.354;2023-07-09T07:25:41;3.75;;;2.03;;
77597;SDS011;66756;42.774;23.354;2023-07-09T07:28:07;4.78;;;2.10;;
77597;SDS011;66756;42.774;23.354;2023-07-09T07:30:33;5.07;;;2.40;;
77597;SDS011;66756;42.774;23.354;2023-07-09T07:32:59;3.75;;;2.67;;
77597;SDS011;66756;42.774;23.354;2023-07-09T07:35:25;4.05;;;2.50;;
77597;SDS011;66756;42.774;23.354;2023-07-09T07:37:51;4.00;;;2.45;;
77597;SDS011;66756;42.774;23.354;2023-07-09T07:40:17;3.05;;;2.38;;
77597;SDS011;66756;42.774;23.354;2023-07-09T07:42:43;3.40;;;1.90;;
77597;SDS011;66756;42.774;23.354;2023-07-09T07:45:09;3.53;;;2.30;;
77597;SDS011;66756;42.774;23.354;2023-07-09T07:47:35;2.88;;;1.35;;
77597;SDS011;66756;42.774;23.354;2023-07-09T07:50:01;4.78;;;2.60;;
77597;SDS011;66756;42.774;23.354;2023-07-09T07:52:28;4.35;;;2.42;;
77597;SDS011;66756;42.774;23.354;2023-07-09T07:54:55;3.88;;;2.33;;
77597;SDS011;66756;42.774;23.354;2023-07-09T07:57:23;4.45;;;2.20;;
77597;SDS011;66756;42.774;23.354;2023-07-09T07:59:49;4.93;;;2.15;;
77597;SDS011;66756;42.774;23.354;2023-07-09T08:02:16;3.72;;;1.95;;
77597;SDS011;66756;42.774;23.354;2023-07-09T08:04:42;3.55;;;2.40;;
77597;SDS011;66756;42.774;23.354;2023-07-09T08:07:08;3.78;;;2.58;;
77597;SDS011;66756;42.774;23.354;2023-07-09T08:09:35;3.45;;;2.35;;
77597;SDS011;66756;42.774;23.354;2023-07-09T08:12:01;5.45;;;3.17;;
77597;SDS011;66756;42.774;23.354;2023-07-09T08:14:33;5.40;;;2.38;;
77597;SDS011;66756;42.774;23.354;2023-07-09T08:16:59;5.47;;;2.08;;
77597;SDS011;66756;42.774;23.354;2023-07-09T08:19:25;6.15;;;2.33;;
77597;SDS011;66756;42.774;23.354;2023-07-09T08:21:51;3.92;;;2.33;;
77597;SDS011;66756;42.774;23.354;2023-07-09T08:24:17;3.42;;;1.85;;
77597;SDS011;66756;42.774;23.354;2023-07-09T08:26:44;3.67;;;2.38;;
77597;SDS011;66756;42.774;23.354;2023-07-09T08:29:10;2.90;;;2.22;;
77597;SDS011;66756;42.774;23.354;2023-07-09T08:31:36;4.38;;;2.72;;
77597;SDS011;66756;42.774;23.354;2023-07-09T08:34:02;3.38;;;2.33;;
77597;SDS011;66756;42.774;23.354;2023-07-09T08:36:28;3.67;;;2.03;;
77597;SDS011;66756;42.774;23.354;2023-07-09T08:38:55;3.85;;;1.95;;
77597;SDS011;66756;42.774;23.354;2023-07-09T08:41:56;3.15;;;2.58;;
77597;SDS011;66756;42.774;23.354;2023-07-09T08:47:09;2.97;;;2.25;;
77597;SDS011;66756;42.774;23.354;2023-07-09T08:49:38;5.03;;;2.03;;
77597;SDS011;66756;42.774;23.354;2023-07-09T08:52:09;3.88;;;1.92;;
77597;SDS011;66756;42.774;23.354;2023-07-09T08:54:37;3.20;;;1.85;;
77597;SDS011;66756;42.774;23.354;2023-07-09T08:57:10;3.47;;;1.98;;
77597;SDS011;66756;42.774;23.354;2023-07-09T08:59:39;3.78;;;1.90;;
77597;SDS011;66756;42.774;23.354;2023-07-09T09:02:05;3.30;;;2.03;;
77597;SDS011;66756;42.774;23.354;2023-07-09T09:04:40;5.35;;;2.17;;
77597;SDS011;66756;42.774;23.354;2023-07-09T09:07:15;4.47;;;2.22;;
77597;SDS011;66756;42.774;23.354;2023-07-09T09:10:03;4.13;;;2.50;;
77597;SDS011;66756;42.774;23.354;2023-07-09T09:12:35;3.33;;;1.73;;
77597;SDS011;66756;42.774;23.354;2023-07-09T09:15:13;2.80;;;2.05;;
77597;SDS011;66756;42.774;23.354;2023-07-09T09:17:40;3.55;;;2.08;;
77597;SDS011;66756;42.774;23.354;2023-07-09T09:20:21;3.72;;;1.90;;
77597;SDS011;66756;42.774;23.354;2023-07-09T09:22:49;3.97;;;1.95;;
77597;SDS011;66756;42.774;23.354;2023-07-09T09:25:18;3.78;;;2.55;;
77597;SDS011;66756;42.774;23.354;2023-07-09T09:27:46;4.30;;;1.67;;
77597;SDS011;66756;42.774;23.354;2023-07-09T09:30:20;3.80;;;2.10;;
77597;SDS011;66756;42.774;23.354;2023-07-09T09:35:18;4.03;;;2.38;;
77597;SDS011;66756;42.774;23.354;2023-07-09T09:37:52;3.13;;;1.48;;
77597;SDS011;66756;42.774;23.354;2023-07-09T09:40:19;2.97;;;1.90;;
77597;SDS011;66756;42.774;23.354;2023-07-09T09:42:48;3.83;;;2.08;;
77597;SDS011;66756;42.774;23.354;2023-07-09T09:45:18;4.20;;;2.63;;
77597;SDS011;66756;42.774;23.354;2023-07-09T09:47:45;3.97;;;2.70;;
77597;SDS011;66756;42.774;23.354;2023-07-09T09:50:16;5.25;;;2.30;;
77597;SDS011;66756;42.774;23.354;2023-07-09T09:52:43;3.85;;;2.13;;
77597;SDS011;66756;42.774;23.354;2023-07-09T09:55:20;4.03;;;2.10;;
77597;SDS011;66756;42.774;23.354;2023-07-09T09:57:50;4.15;;;2.53;;
77597;SDS011;66756;42.774;23.354;2023-07-09T10:00:17;4.45;;;2.40;;
77597;SDS011;66756;42.774;23.354;2023-07-09T10:02:44;10.95;;;2.55;;
77597;SDS011;66756;42.774;23.354;2023-07-09T10:05:11;3.92;;;1.90;;
77597;SDS011;66756;42.774;23.354;2023-07-09T10:07:39;4.10;;;2.63;;
77597;SDS011;66756;42.774;23.354;2023-07-09T10:10:12;3.15;;;2.40;;
77597;SDS011;66756;42.774;23.354;2023-07-09T10:17:59;3.70;;;3.22;;
77597;SDS011;66756;42.774;23.354;2023-07-09T10:20:38;4.55;;;1.95;;
77597;SDS011;66756;42.774;23.354;2023-07-09T10:25:53;2.90;;;2.58;;
77597;SDS011;66756;42.774;23.354;2023-07-09T10:28:30;3.95;;;2.63;;
77597;SDS011;66756;42.774;23.354;2023-07-09T10:40:59;2.70;;;2.05;;
77597;SDS011;66756;42.774;23.354;2023-07-09T10:43:33;4.78;;;2.92;;
77597;SDS011;66756;42.774;23.354;2023-07-09T10:46:07;4.05;;;2.38;;
77597;SDS011;66756;42.774;23.354;2023-07-09T10:48:37;3.15;;;2.42;;
77597;SDS011;66756;42.774;23.354;2023-07-09T10:51:03;3.80;;;1.90;;
77597;SDS011;66756;42.774;23.354;2023-07-09T10:53:37;3.35;;;2.47;;
77597;SDS011;66756;42.774;23.354;2023-07-09T10:56:11;3.50;;;2.47;;
77597;SDS011;66756;42.774;23.354;2023-07-09T10:58:40;3.80;;;2.97;;
77597;SDS011;66756;42.774;23.354;2023-07-09T11:01:07;3.35;;;1.95;;
77597;SDS011;66756;42.774;23.354;2023-07-09T11:03:39;3.03;;;2.00;;
77597;SDS011;66756;42.774;23.354;2023-07-09T11:06:14;3.05;;;1.92;;
77597;SDS011;66756;42.774;23.354;2023-07-09T11:08:42;3.65;;;1.90;;
77597;SDS011;66756;42.774;23.354;2023-07-09T11:11:43;3.17;;;1.77;;
77597;SDS011;66756;42.774;23.354;2023-07-09T11:14:02;3.40;;;2.50;;
77597;SDS011;66756;42.774;23.354;2023-07-09T11:16:36;3.15;;;2.08;;
77597;SDS011;66756;42.774;23.354;2023-07-09T11:19:04;4.05;;;1.95;;
77597;SDS011;66756;42.774;23.354;2023-07-09T11:21:31;5.28;;;2.85;;
77597;SDS011;66756;42.774;23.354;2023-07-09T11:23:58;2.63;;;1.80;;
77597;SDS011;66756;42.774;23.354;2023-07-09T11:28:52;3.40;;;2.47;;
77597;SDS011;66756;42.774;23.354;2023-07-09T11:31:31;3.00;;;2.30;;
77597;SDS011;66756;42.774;23.354;2023-07-09T11:34:10;4.60;;;1.98;;
77597;SDS011;66756;42.774;23.354;2023-07-09T11:44:50;3.70;;;2.22;;
77597;SDS011;66756;42.774;23.354;2023-07-09T11:47:22;3.13;;;2.13;;
77597;SDS011;66756;42.774;23.354;2023-07-09T11:52:43;3.05;;;1.63;;
77597;SDS011;66756;42.774;23.354;2023-07-09T11:55:44;4.10;;;1.92;;
77597;SDS011;66756;42.774;23.354;2023-07-09T11:58:03;3.92;;;1.75;;
77597;SDS011;66756;42.774;23.354;2023-07-09T12:01:02;2.58;;;2.00;;
77597;SDS011;66756;42.774;23.354;2023-07-09T12:03:29;2.78;;;1.77;;
77597;SDS011;66756;42.774;23.354;2023-07-09T12:06:01;3.53;;;2.05;;
77597;SDS011;66756;42.774;23.354;2023-07-09T12:08:32;4.47;;;2.40;;
77597;SDS011;66756;42.774;23.354;2023-07-09T12:10:58;4.10;;;1.80;;
77597;SDS011;66756;42.774;23.354;2023-07-09T12:13:25;3.47;;;2.00;;
77597;SDS011;66756;42.774;23.354;2023-07-09T12:15:51;3.30;;;2.00;;
77597;SDS011;66756;42.774;23.354;2023-07-09T12:18:17;5.75;;;2.55;;
77597;SDS011;66756;42.774;23.354;2023-07-09T12:20:45;2.45;;;1.73;;
77597;SDS011;66756;42.774;23.354;2023-07-09T12:23:18;2.95;;;1.50;;
77597;SDS011;66756;42.774;23.354;2023-07-09T12:25:49;3.03;;;1.85;;
77597;SDS011;66756;42.774;23.354;2023-07-09T12:28:16;4.75;;;2.22;;
77597;SDS011;66756;42.774;23.354;2023-07-09T12:30:50;3.58;;;1.67;;
77597;SDS011;66756;42.774;23.354;2023-07-09T12:33:20;4.43;;;2.10;;
77597;SDS011;66756;42.774;23.354;2023-07-09T12:35:47;3.05;;;1.85;;
77597;SDS011;66756;42.774;23.354;2023-07-09T12:38:17;3.92;;;1.80;;
77597;SDS011;66756;42.774;23.354;2023-07-09T12:40:46;2.35;;;1.88;;
77597;SDS011;66756;42.774;23.354;2023-07-09T12:43:13;2.53;;;1.60;;
77597;SDS011;66756;42.774;23.354;2023-07-09T12:45:39;3.30;;;1.95;;
77597;SDS011;66756;42.774;23.354;2023-07-09T12:48:05;3.45;;;2.10;;
77597;SDS011;66756;42.774;23.354;2023-07-09T12:50:32;4.10;;;1.83;;
77597;SDS011;66756;42.774;23.354;2023-07-09T12:53:02;4.50;;;2.10;;
77597;SDS011;66756;42.774;23.354;2023-07-09T12:55:28;2.40;;;1.92;;
77597;SDS011;66756;42.774;23.354;2023-07-09T12:57:57;4.75;;;2.08;;
77597;SDS011;66756;42.774;23.354;2023-07-09T13:00:30;3.70;;;2.08;;
77597;SDS011;66756;42.774;23.354;2023-07-09T13:02:57;2.50;;;1.55;;
77597;SDS011;66756;42.774;23.354;2023-07-09T13:05:24;4.15;;;2.10;;
77597;SDS011;66756;42.774;23.354;2023-07-09T13:07:52;4.05;;;2.42;;
77597;SDS011;66756;42.774;23.354;2023-07-09T13:10:19;2.85;;;2.20;;
77597;SDS011;66756;42.774;23.354;2023-07-09T13:12:49;3.25;;;1.90;;
77597;SDS011;66756;42.774;23.354;2023-07-09T13:15:22;3.40;;;2.40;;
77597;SDS011;66756;42.774;23.354;2023-07-09T13:17:49;3.28;;;2.25;;
77597;SDS011;66756;42.774;23.354;2023-07-09T13:20:15;2.85;;;2.08;;
77597;SDS011;66756;42.774;23.354;2023-07-09T13:22:42;2.85;;;1.73;;
77597;SDS011;66756;42.774;23.354;2023-07-09T13:25:08;3.35;;;2.47;;
77597;SDS011;66756;42.774;23.354;2023-07-09T13:27:36;3.92;;;2.25;;
77597;SDS011;66756;42.774;23.354;2023-07-09T13:30:02;2.92;;;2.15;;
77597;SDS011;66756;42.774;23.354;2023-07-09T13:32:28;3.35;;;1.88;;
77597;SDS011;66756;42.774;23.354;2023-07-09T13:34:55;4.05;;;2.70;;
77597;SDS011;66756;42.774;23.354;2023-07-09T13:37:21;4.00;;;1.85;;
77597;SDS011;66756;42.774;23.354;2023-07-09T13:39:47;2.78;;;2.08;;
77597;SDS011;66756;42.774;23.354;2023-07-09T13:42:14;2.75;;;2.17;;
77597;SDS011;66756;42.774;23.354;2023-07-09T13:44:42;3.40;;;2.13;;
77597;SDS011;66756;42.774;23.354;2023-07-09T13:47:10;3.63;;;1.88;;
77597;SDS011;66756;42.774;23.354;2023-07-09T13:49:37;3.47;;;2.05;;
77597;SDS011;66756;42.774;23.354;2023-07-09T13:52:03;2.92;;;2.03;;
77597;SDS011;66756;42.774;23.354;2023-07-09T13:54:31;4.00;;;2.40;;
77597;SDS011;66756;42.774;23.354;2023-07-09T13:57:01;5.03;;;2.13;;
77597;SDS011;66756;42.774;23.354;2023-07-09T13:59:27;3.20;;;2.45;;
77597;SDS011;66756;42.774;23.354;2023-07-09T14:01:54;3.47;;;1.92;;
77597;SDS011;66756;42.774;23.354;2023-07-09T14:04:21;2.70;;;1.70;;
77597;SDS011;66756;42.774;23.354;2023-07-09T14:06:47;3.08;;;1.88;;
77597;SDS011;66756;42.774;23.354;2023-07-09T14:09:13;4.18;;;2.60;;
77597;SDS011;66756;42.774;23.354;2023-07-09T14:11:44;3.38;;;1.90;;
77597;SDS011;66756;42.774;23.354;2023-07-09T14:14:15;5.20;;;2.15;;
77597;SDS011;66756;42.774;23.354;2023-07-09T14:16:41;5.10;;;2.42;;
77597;SDS011;66756;42.774;23.354;2023-07-09T14:19:26;3.25;;;2.05;;
77597;SDS011;66756;42.774;23.354;2023-07-09T14:21:53;3.42;;;1.75;;
77597;SDS011;66756;42.774;23.354;2023-07-09T14:26:46;3.10;;;1.75;;
77597;SDS011;66756;42.774;23.354;2023-07-09T14:29:12;2.38;;;1.38;;
77597;SDS011;66756;42.774;23.354;2023-07-09T14:31:39;2.83;;;1.83;;
77597;SDS011;66756;42.774;23.354;2023-07-09T14:36:41;2.40;;;1.50;;
77597;SDS011;66756;42.774;23.354;2023-07-09T14:39:10;3.20;;;2.30;;
77597;SDS011;66756;42.774;23.354;2023-07-09T14:41:36;4.55;;;2.10;;
77597;SDS011;66756;42.774;23.354;2023-07-09T14:44:02;4.28;;;2.30;;
77597;SDS011;66756;42.774;23.354;2023-07-09T14:46:28;2.53;;;2.17;;
77597;SDS011;66756;42.774;23.354;2023-07-09T14:48:54;2.85;;;1.77;;
77597;SDS011;66756;42.774;23.354;2023-07-09T14:51:20;3.20;;;1.65;;
77597;SDS011;66756;42.774;23.354;2023-07-09T14:53:47;3.00;;;2.38;;
77597;SDS011;66756;42.774;23.354;2023-07-09T14:56:13;2.50;;;1.90;;
77597;SDS011;66756;42.774;23.354;2023-07-09T14:58:39;3.67;;;2.40;;
77597;SDS011;66756;42.774;23.354;2023-07-09T15:01:10;3.47;;;2.15;;
77597;SDS011;66756;42.774;23.354;2023-07-09T15:03:36;2.88;;;2.17;;
77597;SDS011;66756;42.774;23.354;2023-07-09T15:06:02;2.60;;;1.90;;
77597;SDS011;66756;42.774;23.354;2023-07-09T15:08:28;2.88;;;2.25;;
77597;SDS011;66756;42.774;23.354;2023-07-09T15:10:54;4.75;;;2.90;;
77597;SDS011;66756;42.774;23.354;2023-07-09T15:15:53;5.95;;;2.58;;
77597;SDS011;66756;42.774;23.354;2023-07-09T15:18:19;2.53;;;2.25;;
77597;SDS011;66756;42.774;23.354;2023-07-09T15:20:49;4.22;;;2.97;;
77597;SDS011;66756;42.774;23.354;2023-07-09T15:23:16;2.90;;;2.45;;
77597;SDS011;66756;42.774;23.354;2023-07-09T15:25:42;3.72;;;3.15;;